KFNT/FNT METAR and TAF weather

Enter ICAO airport designator
Station Type Date Time Source
KFNT METAR 2020/08/10 18:53 UTC NOAA

KFNT 101853Z 22008KT 10SM FEW039 30/21 A2992 RMK AO2 SLP124 T03000206


Station Type Date Time Source
KFNT Decoded METAR 2020/08/10 18:53 UTC NOAA

FLINT BISHOP INTERNATIONAL AIRPORT, MI, United States (KFNT) 42-58N 83-45W 233M
Aug 10, 2020 - 02:53 PM EDT / 2020.08.10 1853 UTC
Wind: from the SW (220 degrees) at 9 MPH (8 KT):0
Visibility: 10 mile(s):0
Sky conditions: mostly clear
Temperature: 86.0 F (30.0 C)
Dew Point: 69.1 F (20.6 C)
Relative Humidity: 57%
Pressure (altimeter): 29.92 in. Hg (1013 hPa)
ob: KFNT 101853Z 22008KT 10SM FEW039 30/21 A2992 RMK AO2 SLP124 T03000206
cycle: 19

Station Type Date Time Source
KFNT TAF 2020/08/10 18:30 UTC NOAA

TAF KFNT 101728Z 1018/1118 21008KT P6SM SCT040 BKN250
FM101900 20012G20KT P6SM BKN050
TEMPO 1100/1104 3SM TSRA BR BKN040CB
FM110400 26006KT P6SM BKN050
FM111300 33005KT P6SM SCT250

Example: see airport list